sensor_id;sensor_type;location;lat;lon;timestamp;P1;durP1;ratioP1;P2;durP2;ratioP2
16600;SDS011;34891;48.164;11.572;2023-04-03T00:01:57;9.88;;;4.82;;
16600;SDS011;34891;48.164;11.572;2023-04-03T00:12:03;11.15;;;4.53;;
16600;SDS011;34891;48.164;11.572;2023-04-03T00:17:06;9.60;;;4.18;;
16600;SDS011;34891;48.164;11.572;2023-04-03T00:22:09;12.48;;;4.70;;
16600;SDS011;34891;48.164;11.572;2023-04-03T00:27:12;8.73;;;4.50;;
16600;SDS011;34891;48.164;11.572;2023-04-03T00:32:16;11.18;;;5.03;;
16600;SDS011;34891;48.164;11.572;2023-04-03T00:37:20;11.35;;;4.22;;
16600;SDS011;34891;48.164;11.572;2023-04-03T00:42:23;10.40;;;4.10;;
16600;SDS011;34891;48.164;11.572;2023-04-03T00:47:27;9.93;;;4.18;;
16600;SDS011;34891;48.164;11.572;2023-04-03T00:52:31;13.73;;;5.10;;
16600;SDS011;34891;48.164;11.572;2023-04-03T00:57:34;10.15;;;4.68;;
16600;SDS011;34891;48.164;11.572;2023-04-03T01:02:39;10.05;;;4.18;;
16600;SDS011;34891;48.164;11.572;2023-04-03T01:07:42;11.32;;;4.85;;
16600;SDS011;34891;48.164;11.572;2023-04-03T01:12:46;13.33;;;4.83;;
16600;SDS011;34891;48.164;11.572;2023-04-03T01:17:51;8.10;;;4.20;;
16600;SDS011;34891;48.164;11.572;2023-04-03T01:22:56;9.10;;;4.40;;
16600;SDS011;34891;48.164;11.572;2023-04-03T01:28:02;8.55;;;4.72;;
16600;SDS011;34891;48.164;11.572;2023-04-03T01:33:06;8.95;;;3.92;;
16600;SDS011;34891;48.164;11.572;2023-04-03T01:38:09;9.07;;;4.38;;
16600;SDS011;34891;48.164;11.572;2023-04-03T01:43:12;8.68;;;4.35;;
16600;SDS011;34891;48.164;11.572;2023-04-03T01:48:17;8.67;;;4.23;;
16600;SDS011;34891;48.164;11.572;2023-04-03T01:53:23;9.32;;;4.30;;
16600;SDS011;34891;48.164;11.572;2023-04-03T01:58:27;7.05;;;4.10;;
16600;SDS011;34891;48.164;11.572;2023-04-03T02:03:32;8.20;;;3.97;;
16600;SDS011;34891;48.164;11.572;2023-04-03T02:08:34;8.32;;;4.40;;
16600;SDS011;34891;48.164;11.572;2023-04-03T02:13:37;10.65;;;4.22;;
16600;SDS011;34891;48.164;11.572;2023-04-03T02:18:41;8.88;;;3.90;;
16600;SDS011;34891;48.164;11.572;2023-04-03T02:23:44;8.55;;;4.18;;
16600;SDS011;34891;48.164;11.572;2023-04-03T02:28:46;9.73;;;4.00;;
16600;SDS011;34891;48.164;11.572;2023-04-03T02:33:51;6.00;;;3.60;;
16600;SDS011;34891;48.164;11.572;2023-04-03T02:38:53;6.97;;;3.70;;
16600;SDS011;34891;48.164;11.572;2023-04-03T02:43:56;6.55;;;3.50;;
16600;SDS011;34891;48.164;11.572;2023-04-03T02:49:00;8.13;;;3.92;;
16600;SDS011;34891;48.164;11.572;2023-04-03T02:54:03;8.52;;;3.70;;
16600;SDS011;34891;48.164;11.572;2023-04-03T02:59:06;5.73;;;3.23;;
16600;SDS011;34891;48.164;11.572;2023-04-03T03:04:10;8.30;;;3.63;;
16600;SDS011;34891;48.164;11.572;2023-04-03T03:09:13;6.53;;;3.58;;
16600;SDS011;34891;48.164;11.572;2023-04-03T03:14:16;8.07;;;3.17;;
16600;SDS011;34891;48.164;11.572;2023-04-03T03:19:20;6.15;;;3.30;;
16600;SDS011;34891;48.164;11.572;2023-04-03T03:24:24;6.10;;;3.33;;
16600;SDS011;34891;48.164;11.572;2023-04-03T03:29:26;5.93;;;3.30;;
16600;SDS011;34891;48.164;11.572;2023-04-03T03:34:40;5.45;;;2.30;;
16600;SDS011;34891;48.164;11.572;2023-04-03T03:39:43;6.00;;;2.72;;
16600;SDS011;34891;48.164;11.572;2023-04-03T03:44:46;4.80;;;2.47;;
16600;SDS011;34891;48.164;11.572;2023-04-03T03:49:50;5.33;;;3.00;;
16600;SDS011;34891;48.164;11.572;2023-04-03T03:54:54;6.55;;;3.03;;
16600;SDS011;34891;48.164;11.572;2023-04-03T03:59:56;4.85;;;2.72;;
16600;SDS011;34891;48.164;11.572;2023-04-03T04:05:00;5.03;;;2.72;;
16600;SDS011;34891;48.164;11.572;2023-04-03T04:10:04;4.53;;;2.60;;
16600;SDS011;34891;48.164;11.572;2023-04-03T04:15:07;4.93;;;2.80;;
16600;SDS011;34891;48.164;11.572;2023-04-03T04:20:12;4.57;;;2.78;;
16600;SDS011;34891;48.164;11.572;2023-04-03T04:25:15;3.63;;;2.22;;
16600;SDS011;34891;48.164;11.572;2023-04-03T04:30:18;5.25;;;2.65;;
16600;SDS011;34891;48.164;11.572;2023-04-03T04:35:23;6.23;;;3.30;;
16600;SDS011;34891;48.164;11.572;2023-04-03T04:40:26;6.40;;;2.97;;
16600;SDS011;34891;48.164;11.572;2023-04-03T04:45:29;5.72;;;2.97;;
16600;SDS011;34891;48.164;11.572;2023-04-03T04:50:34;6.97;;;2.63;;
16600;SDS011;34891;48.164;11.572;2023-04-03T05:00:40;6.47;;;3.25;;
16600;SDS011;34891;48.164;11.572;2023-04-03T05:05:45;4.35;;;2.60;;
16600;SDS011;34891;48.164;11.572;2023-04-03T05:10:48;7.40;;;3.85;;
16600;SDS011;34891;48.164;11.572;2023-04-03T05:15:51;5.88;;;2.88;;
16600;SDS011;34891;48.164;11.572;2023-04-03T05:20:55;4.82;;;2.70;;
16600;SDS011;34891;48.164;11.572;2023-04-03T05:25:58;8.00;;;3.10;;
16600;SDS011;34891;48.164;11.572;2023-04-03T05:31:01;6.35;;;3.08;;
16600;SDS011;34891;48.164;11.572;2023-04-03T05:36:06;6.75;;;3.40;;
16600;SDS011;34891;48.164;11.572;2023-04-03T05:41:09;5.28;;;2.67;;
16600;SDS011;34891;48.164;11.572;2023-04-03T05:46:13;5.67;;;2.77;;
16600;SDS011;34891;48.164;11.572;2023-04-03T05:56:21;5.50;;;3.13;;
16600;SDS011;34891;48.164;11.572;2023-04-03T06:01:24;6.38;;;2.90;;
16600;SDS011;34891;48.164;11.572;2023-04-03T06:06:27;4.47;;;2.83;;
16600;SDS011;34891;48.164;11.572;2023-04-03T06:11:46;5.90;;;2.75;;
16600;SDS011;34891;48.164;11.572;2023-04-03T06:16:49;7.00;;;2.92;;
16600;SDS011;34891;48.164;11.572;2023-04-03T06:21:52;6.68;;;3.05;;
16600;SDS011;34891;48.164;11.572;2023-04-03T06:26:56;6.15;;;2.78;;
16600;SDS011;34891;48.164;11.572;2023-04-03T06:32:00;5.28;;;2.67;;
16600;SDS011;34891;48.164;11.572;2023-04-03T06:37:14;6.25;;;3.03;;
16600;SDS011;34891;48.164;11.572;2023-04-03T06:42:29;7.53;;;3.05;;
16600;SDS011;34891;48.164;11.572;2023-04-03T06:47:31;5.47;;;3.10;;
16600;SDS011;34891;48.164;11.572;2023-04-03T06:52:34;6.57;;;3.13;;
16600;SDS011;34891;48.164;11.572;2023-04-03T06:57:38;7.53;;;3.33;;
16600;SDS011;34891;48.164;11.572;2023-04-03T07:02:41;4.88;;;2.85;;
16600;SDS011;34891;48.164;11.572;2023-04-03T07:07:44;5.65;;;2.85;;
16600;SDS011;34891;48.164;11.572;2023-04-03T07:12:48;6.32;;;3.53;;
16600;SDS011;34891;48.164;11.572;2023-04-03T07:17:52;6.07;;;3.42;;
16600;SDS011;34891;48.164;11.572;2023-04-03T07:22:54;7.10;;;2.88;;
16600;SDS011;34891;48.164;11.572;2023-04-03T07:27:58;5.88;;;2.60;;
16600;SDS011;34891;48.164;11.572;2023-04-03T07:33:02;6.43;;;2.83;;
16600;SDS011;34891;48.164;11.572;2023-04-03T07:38:05;7.88;;;2.88;;
16600;SDS011;34891;48.164;11.572;2023-04-03T07:43:13;7.53;;;2.80;;
16600;SDS011;34891;48.164;11.572;2023-04-03T07:48:16;11.27;;;5.50;;
16600;SDS011;34891;48.164;11.572;2023-04-03T07:53:21;5.07;;;2.55;;
16600;SDS011;34891;48.164;11.572;2023-04-03T07:58:25;8.23;;;3.53;;
16600;SDS011;34891;48.164;11.572;2023-04-03T08:08:32;4.30;;;2.47;;
16600;SDS011;34891;48.164;11.572;2023-04-03T08:13:37;6.55;;;2.78;;
16600;SDS011;34891;48.164;11.572;2023-04-03T08:18:39;8.45;;;3.38;;
16600;SDS011;34891;48.164;11.572;2023-04-03T08:23:42;4.78;;;2.72;;
16600;SDS011;34891;48.164;11.572;2023-04-03T08:28:47;8.32;;;3.75;;
16600;SDS011;34891;48.164;11.572;2023-04-03T08:33:50;7.10;;;3.58;;
16600;SDS011;34891;48.164;11.572;2023-04-03T08:38:54;6.75;;;3.63;;
16600;SDS011;34891;48.164;11.572;2023-04-03T08:44:00;9.90;;;4.47;;
16600;SDS011;34891;48.164;11.572;2023-04-03T08:49:13;5.90;;;2.72;;
16600;SDS011;34891;48.164;11.572;2023-04-03T08:54:22;6.55;;;3.85;;
16600;SDS011;34891;48.164;11.572;2023-04-03T08:59:28;11.52;;;3.65;;
16600;SDS011;34891;48.164;11.572;2023-04-03T09:04:33;6.40;;;3.63;;
16600;SDS011;34891;48.164;11.572;2023-04-03T09:09:36;10.25;;;4.80;;
16600;SDS011;34891;48.164;11.572;2023-04-03T09:14:45;5.03;;;3.20;;
16600;SDS011;34891;48.164;11.572;2023-04-03T09:19:51;5.38;;;3.50;;
16600;SDS011;34891;48.164;11.572;2023-04-03T09:24:58;6.28;;;3.50;;
16600;SDS011;34891;48.164;11.572;2023-04-03T09:30:03;7.13;;;3.88;;
16600;SDS011;34891;48.164;11.572;2023-04-03T09:35:15;5.68;;;3.05;;
16600;SDS011;34891;48.164;11.572;2023-04-03T09:40:32;8.90;;;3.45;;
16600;SDS011;34891;48.164;11.572;2023-04-03T09:45:38;5.72;;;3.85;;
16600;SDS011;34891;48.164;11.572;2023-04-03T09:50:52;6.15;;;3.22;;
16600;SDS011;34891;48.164;11.572;2023-04-03T09:55:58;5.13;;;3.22;;
16600;SDS011;34891;48.164;11.572;2023-04-03T10:01:02;4.65;;;2.45;;
16600;SDS011;34891;48.164;11.572;2023-04-03T10:06:05;5.47;;;3.55;;
16600;SDS011;34891;48.164;11.572;2023-04-03T10:11:24;6.53;;;3.72;;
16600;SDS011;34891;48.164;11.572;2023-04-03T10:16:29;7.45;;;3.75;;
16600;SDS011;34891;48.164;11.572;2023-04-03T10:21:36;7.05;;;3.60;;
16600;SDS011;34891;48.164;11.572;2023-04-03T10:26:45;9.80;;;4.32;;
16600;SDS011;34891;48.164;11.572;2023-04-03T10:31:51;7.72;;;3.88;;
16600;SDS011;34891;48.164;11.572;2023-04-03T10:36:56;5.30;;;3.50;;
16600;SDS011;34891;48.164;11.572;2023-04-03T10:42:03;5.20;;;2.95;;
16600;SDS011;34891;48.164;11.572;2023-04-03T10:47:20;6.47;;;3.15;;
16600;SDS011;34891;48.164;11.572;2023-04-03T10:52:25;5.50;;;2.95;;
16600;SDS011;34891;48.164;11.572;2023-04-03T10:57:32;1.35;;;1.23;;
16600;SDS011;34891;48.164;11.572;2023-04-03T11:02:38;6.38;;;2.80;;
16600;SDS011;34891;48.164;11.572;2023-04-03T11:07:43;6.72;;;3.33;;
16600;SDS011;34891;48.164;11.572;2023-04-03T11:12:48;5.60;;;2.78;;
16600;SDS011;34891;48.164;11.572;2023-04-03T11:17:56;6.93;;;3.35;;
16600;SDS011;34891;48.164;11.572;2023-04-03T11:23:01;4.32;;;1.85;;
16600;SDS011;34891;48.164;11.572;2023-04-03T11:28:06;5.72;;;2.42;;
16600;SDS011;34891;48.164;11.572;2023-04-03T11:38:36;3.80;;;2.10;;
16600;SDS011;34891;48.164;11.572;2023-04-03T11:43:42;11.38;;;4.53;;
16600;SDS011;34891;48.164;11.572;2023-04-03T11:48:49;3.83;;;2.10;;
16600;SDS011;34891;48.164;11.572;2023-04-03T11:59:24;7.40;;;2.17;;
16600;SDS011;34891;48.164;11.572;2023-04-03T12:04:29;3.70;;;1.77;;
16600;SDS011;34891;48.164;11.572;2023-04-03T12:14:36;2.38;;;1.40;;
16600;SDS011;34891;48.164;11.572;2023-04-03T12:19:39;5.30;;;1.88;;
16600;SDS011;34891;48.164;11.572;2023-04-03T12:24:45;5.05;;;2.00;;
16600;SDS011;34891;48.164;11.572;2023-04-03T12:29:55;8.00;;;3.63;;
16600;SDS011;34891;48.164;11.572;2023-04-03T12:35:03;4.55;;;2.08;;
16600;SDS011;34891;48.164;11.572;2023-04-03T12:40:09;5.30;;;2.00;;
16600;SDS011;34891;48.164;11.572;2023-04-03T12:45:17;2.85;;;1.67;;
16600;SDS011;34891;48.164;11.572;2023-04-03T12:55:29;2.33;;;1.30;;
16600;SDS011;34891;48.164;11.572;2023-04-03T13:05:37;2.65;;;1.60;;
16600;SDS011;34891;48.164;11.572;2023-04-03T13:10:48;3.05;;;1.90;;
16600;SDS011;34891;48.164;11.572;2023-04-03T13:15:52;4.72;;;1.80;;
16600;SDS011;34891;48.164;11.572;2023-04-03T13:20:58;3.72;;;1.60;;
16600;SDS011;34891;48.164;11.572;2023-04-03T13:26:03;3.75;;;1.70;;
16600;SDS011;34891;48.164;11.572;2023-04-03T13:31:07;2.63;;;1.58;;
16600;SDS011;34891;48.164;11.572;2023-04-03T13:41:26;4.33;;;2.00;;
16600;SDS011;34891;48.164;11.572;2023-04-03T13:46:31;2.97;;;1.80;;
16600;SDS011;34891;48.164;11.572;2023-04-03T13:51:34;3.33;;;1.58;;
16600;SDS011;34891;48.164;11.572;2023-04-03T13:56:42;10.60;;;4.68;;
16600;SDS011;34891;48.164;11.572;2023-04-03T14:01:46;2.72;;;1.60;;
16600;SDS011;34891;48.164;11.572;2023-04-03T14:06:52;4.55;;;2.00;;
16600;SDS011;34891;48.164;11.572;2023-04-03T14:11:57;4.07;;;1.75;;
16600;SDS011;34891;48.164;11.572;2023-04-03T14:17:03;3.97;;;1.55;;
16600;SDS011;34891;48.164;11.572;2023-04-03T14:22:11;3.75;;;1.70;;
16600;SDS011;34891;48.164;11.572;2023-04-03T14:27:19;3.13;;;1.40;;
16600;SDS011;34891;48.164;11.572;2023-04-03T14:32:23;4.10;;;1.70;;
16600;SDS011;34891;48.164;11.572;2023-04-03T14:37:27;6.90;;;3.42;;
16600;SDS011;34891;48.164;11.572;2023-04-03T14:42:33;6.38;;;2.20;;
16600;SDS011;34891;48.164;11.572;2023-04-03T14:47:37;2.03;;;1.50;;
16600;SDS011;34891;48.164;11.572;2023-04-03T14:52:43;3.85;;;1.27;;
16600;SDS011;34891;48.164;11.572;2023-04-03T14:57:48;4.65;;;1.58;;
16600;SDS011;34891;48.164;11.572;2023-04-03T15:02:52;2.35;;;1.65;;
16600;SDS011;34891;48.164;11.572;2023-04-03T15:07:55;7.80;;;5.30;;
16600;SDS011;34891;48.164;11.572;2023-04-03T15:13:00;2.55;;;1.40;;
16600;SDS011;34891;48.164;11.572;2023-04-03T15:18:04;3.30;;;1.38;;
16600;SDS011;34891;48.164;11.572;2023-04-03T15:23:07;3.05;;;1.40;;
16600;SDS011;34891;48.164;11.572;2023-04-03T15:28:13;1.58;;;1.42;;
16600;SDS011;34891;48.164;11.572;2023-04-03T15:33:23;5.00;;;1.40;;
16600;SDS011;34891;48.164;11.572;2023-04-03T15:38:27;2.35;;;1.27;;
16600;SDS011;34891;48.164;11.572;2023-04-03T15:43:32;2.10;;;1.40;;
16600;SDS011;34891;48.164;11.572;2023-04-03T15:48:37;4.18;;;1.25;;
16600;SDS011;34891;48.164;11.572;2023-04-03T15:53:40;3.53;;;1.30;;
16600;SDS011;34891;48.164;11.572;2023-04-03T16:03:48;2.13;;;1.23;;
16600;SDS011;34891;48.164;11.572;2023-04-03T16:08:51;4.28;;;1.50;;
16600;SDS011;34891;48.164;11.572;2023-04-03T16:13:58;2.00;;;1.33;;
16600;SDS011;34891;48.164;11.572;2023-04-03T16:19:03;3.75;;;1.67;;
16600;SDS011;34891;48.164;11.572;2023-04-03T16:24:06;4.13;;;1.38;;
16600;SDS011;34891;48.164;11.572;2023-04-03T16:29:09;2.65;;;1.10;;
16600;SDS011;34891;48.164;11.572;2023-04-03T16:34:21;5.38;;;1.58;;
16600;SDS011;34891;48.164;11.572;2023-04-03T16:39:25;3.90;;;1.40;;
16600;SDS011;34891;48.164;11.572;2023-04-03T16:44:27;3.85;;;1.17;;
16600;SDS011;34891;48.164;11.572;2023-04-03T16:49:32;2.10;;;1.48;;
16600;SDS011;34891;48.164;11.572;2023-04-03T16:54:35;3.83;;;1.60;;
16600;SDS011;34891;48.164;11.572;2023-04-03T16:59:38;5.38;;;1.58;;
16600;SDS011;34891;48.164;11.572;2023-04-03T17:04:52;2.53;;;1.30;;
16600;SDS011;34891;48.164;11.572;2023-04-03T17:15:08;1.55;;;1.15;;
16600;SDS011;34891;48.164;11.572;2023-04-03T17:20:13;2.35;;;1.30;;
16600;SDS011;34891;48.164;11.572;2023-04-03T17:25:16;1.92;;;1.25;;
16600;SDS011;34891;48.164;11.572;2023-04-03T17:30:18;3.13;;;1.38;;
16600;SDS011;34891;48.164;11.572;2023-04-03T17:35:32;1.73;;;0.90;;
16600;SDS011;34891;48.164;11.572;2023-04-03T17:40:45;4.82;;;1.48;;
16600;SDS011;34891;48.164;11.572;2023-04-03T17:45:58;0.88;;;0.73;;
16600;SDS011;34891;48.164;11.572;2023-04-03T17:51:05;2.95;;;1.40;;
16600;SDS011;34891;48.164;11.572;2023-04-03T17:56:08;3.80;;;1.50;;
16600;SDS011;34891;48.164;11.572;2023-04-03T18:01:12;7.27;;;2.30;;
16600;SDS011;34891;48.164;11.572;2023-04-03T18:06:17;6.10;;;2.50;;
16600;SDS011;34891;48.164;11.572;2023-04-03T18:11:26;4.50;;;1.90;;
16600;SDS011;34891;48.164;11.572;2023-04-03T18:16:29;4.22;;;1.95;;
16600;SDS011;34891;48.164;11.572;2023-04-03T18:21:34;5.13;;;1.70;;
16600;SDS011;34891;48.164;11.572;2023-04-03T18:26:37;2.85;;;1.45;;
16600;SDS011;34891;48.164;11.572;2023-04-03T18:31:42;2.45;;;1.58;;
16600;SDS011;34891;48.164;11.572;2023-04-03T18:36:48;5.22;;;2.15;;
16600;SDS011;34891;48.164;11.572;2023-04-03T18:41:53;4.18;;;1.65;;
16600;SDS011;34891;48.164;11.572;2023-04-03T18:46:56;3.10;;;1.50;;
16600;SDS011;34891;48.164;11.572;2023-04-03T18:52:03;2.78;;;1.45;;
16600;SDS011;34891;48.164;11.572;2023-04-03T18:57:06;3.05;;;1.50;;
16600;SDS011;34891;48.164;11.572;2023-04-03T19:02:09;2.90;;;1.60;;
16600;SDS011;34891;48.164;11.572;2023-04-03T19:07:15;5.63;;;1.52;;
16600;SDS011;34891;48.164;11.572;2023-04-03T19:12:19;3.83;;;1.70;;
16600;SDS011;34891;48.164;11.572;2023-04-03T19:17:22;9.45;;;1.40;;
16600;SDS011;34891;48.164;11.572;2023-04-03T19:22:26;2.95;;;1.63;;
16600;SDS011;34891;48.164;11.572;2023-04-03T19:27:29;3.40;;;0.93;;
16600;SDS011;34891;48.164;11.572;2023-04-03T19:32:33;1.95;;;0.98;;
16600;SDS011;34891;48.164;11.572;2023-04-03T19:37:38;1.85;;;1.13;;
16600;SDS011;34891;48.164;11.572;2023-04-03T19:42:41;1.60;;;0.90;;
16600;SDS011;34891;48.164;11.572;2023-04-03T19:47:44;0.88;;;0.68;;
16600;SDS011;34891;48.164;11.572;2023-04-03T19:52:50;4.43;;;1.80;;
16600;SDS011;34891;48.164;11.572;2023-04-03T20:02:55;3.77;;;1.77;;
16600;SDS011;34891;48.164;11.572;2023-04-03T20:08:00;4.10;;;1.83;;
16600;SDS011;34891;48.164;11.572;2023-04-03T20:18:09;2.50;;;1.27;;
16600;SDS011;34891;48.164;11.572;2023-04-03T20:23:14;4.40;;;1.70;;
16600;SDS011;34891;48.164;11.572;2023-04-03T20:33:22;3.22;;;1.73;;
16600;SDS011;34891;48.164;11.572;2023-04-03T20:38:27;4.80;;;2.30;;
16600;SDS011;34891;48.164;11.572;2023-04-03T20:43:31;4.27;;;2.30;;
16600;SDS011;34891;48.164;11.572;2023-04-03T20:48:34;2.77;;;1.60;;
16600;SDS011;34891;48.164;11.572;2023-04-03T20:53:38;10.63;;;2.03;;
16600;SDS011;34891;48.164;11.572;2023-04-03T20:58:42;7.40;;;2.20;;
16600;SDS011;34891;48.164;11.572;2023-04-03T21:03:47;3.00;;;1.40;;
16600;SDS011;34891;48.164;11.572;2023-04-03T21:19:38;3.13;;;1.70;;
16600;SDS011;34891;48.164;11.572;2023-04-03T21:24:47;2.43;;;1.27;;
16600;SDS011;34891;48.164;11.572;2023-04-03T21:29:49;7.13;;;1.87;;
16600;SDS011;34891;48.164;11.572;2023-04-03T21:34:54;5.07;;;2.23;;
16600;SDS011;34891;48.164;11.572;2023-04-03T21:44:59;4.03;;;1.83;;
16600;SDS011;34891;48.164;11.572;2023-04-03T21:50:04;7.43;;;1.97;;
16600;SDS011;34891;48.164;11.572;2023-04-03T21:55:07;3.77;;;1.80;;
16600;SDS011;34891;48.164;11.572;2023-04-03T22:00:10;4.13;;;1.40;;
16600;SDS011;34891;48.164;11.572;2023-04-03T22:05:17;2.37;;;1.33;;
16600;SDS011;34891;48.164;11.572;2023-04-03T22:10:20;2.22;;;1.45;;
16600;SDS011;34891;48.164;11.572;2023-04-03T22:15:24;3.10;;;1.30;;
16600;SDS011;34891;48.164;11.572;2023-04-03T22:20:28;4.87;;;1.90;;
16600;SDS011;34891;48.164;11.572;2023-04-03T22:25:32;3.77;;;1.80;;
16600;SDS011;34891;48.164;11.572;2023-04-03T22:30:37;4.53;;;2.13;;
16600;SDS011;34891;48.164;11.572;2023-04-03T22:35:45;3.77;;;1.53;;
16600;SDS011;34891;48.164;11.572;2023-04-03T22:40:54;7.53;;;2.40;;
16600;SDS011;34891;48.164;11.572;2023-04-03T22:45:58;4.80;;;1.87;;
16600;SDS011;34891;48.164;11.572;2023-04-03T22:51:04;4.13;;;2.00;;
16600;SDS011;34891;48.164;11.572;2023-04-03T22:56:09;5.10;;;2.07;;
16600;SDS011;34891;48.164;11.572;2023-04-03T23:01:13;4.83;;;1.23;;
16600;SDS011;34891;48.164;11.572;2023-04-03T23:06:17;4.33;;;1.70;;
16600;SDS011;34891;48.164;11.572;2023-04-03T23:11:20;4.20;;;1.20;;
16600;SDS011;34891;48.164;11.572;2023-04-03T23:16:25;3.57;;;2.00;;
16600;SDS011;34891;48.164;11.572;2023-04-03T23:21:30;1.93;;;1.17;;
16600;SDS011;34891;48.164;11.572;2023-04-03T23:26:33;1.63;;;1.17;;
16600;SDS011;34891;48.164;11.572;2023-04-03T23:31:36;2.43;;;1.37;;
16600;SDS011;34891;48.164;11.572;2023-04-03T23:36:40;2.60;;;1.70;;
16600;SDS011;34891;48.164;11.572;2023-04-03T23:41:44;3.17;;;1.47;;
16600;SDS011;34891;48.164;11.572;2023-04-03T23:46:50;4.67;;;1.77;;
16600;SDS011;34891;48.164;11.572;2023-04-03T23:56:59;2.10;;;1.30;;
